Metar Aviation Weather Data ENHD

13°C Temp
2°C Dewpoint
% Humidity
Temperature
19 KM/H
12 MPH
10 KTS
150°
South South
East

Wind Speed
Clear
Conditions
Pressure 1017.92 (hPa) - 30.06 (in)
Visibility 6.2 (mi) - 10 (km)

Current Conditions
ENHD
Metar :ENHD 220720Z 15010KT CAVOK 13/02 Q1018
Mon 22nd April 09:20 am

  Metar Aviation API Data Provided by https://www.checkwx.com/ PHP scripts by weather34.com ©2019